sensor_id;sensor_type;location;lat;lon;timestamp;P1;durP1;ratioP1;P2;durP2;ratioP2
80104;SDS011;69865;47.648;19.030;2023-07-13T00:00:25;4.07;;;4.07;;
80104;SDS011;69865;47.648;19.030;2023-07-13T00:00:57;3.80;;;3.80;;
80104;SDS011;69865;47.648;19.030;2023-07-13T00:01:29;3.70;;;3.70;;
80104;SDS011;69865;47.648;19.030;2023-07-13T00:02:01;3.80;;;3.80;;
80104;SDS011;69865;47.648;19.030;2023-07-13T00:02:34;3.90;;;3.90;;
80104;SDS011;69865;47.648;19.030;2023-07-13T00:03:06;4.30;;;4.30;;
80104;SDS011;69865;47.648;19.030;2023-07-13T00:03:38;3.57;;;3.57;;
80104;SDS011;69865;47.648;19.030;2023-07-13T00:04:10;3.43;;;3.43;;
80104;SDS011;69865;47.648;19.030;2023-07-13T00:04:42;3.30;;;3.30;;
80104;SDS011;69865;47.648;19.030;2023-07-13T00:05:14;3.03;;;3.03;;
80104;SDS011;69865;47.648;19.030;2023-07-13T00:05:46;2.83;;;2.83;;
80104;SDS011;69865;47.648;19.030;2023-07-13T00:06:18;2.83;;;2.83;;
80104;SDS011;69865;47.648;19.030;2023-07-13T00:06:51;2.73;;;2.73;;
80104;SDS011;69865;47.648;19.030;2023-07-13T00:07:23;2.57;;;2.57;;
80104;SDS011;69865;47.648;19.030;2023-07-13T00:07:55;2.90;;;2.90;;
80104;SDS011;69865;47.648;19.030;2023-07-13T00:08:29;2.80;;;2.80;;
80104;SDS011;69865;47.648;19.030;2023-07-13T00:09:02;2.43;;;2.43;;
80104;SDS011;69865;47.648;19.030;2023-07-13T00:09:34;2.30;;;2.30;;
80104;SDS011;69865;47.648;19.030;2023-07-13T00:10:07;2.50;;;2.50;;
80104;SDS011;69865;47.648;19.030;2023-07-13T00:10:40;2.23;;;2.23;;
80104;SDS011;69865;47.648;19.030;2023-07-13T00:11:12;2.00;;;2.00;;
80104;SDS011;69865;47.648;19.030;2023-07-13T00:11:45;1.97;;;1.97;;
80104;SDS011;69865;47.648;19.030;2023-07-13T00:12:26;1.93;;;1.93;;
80104;SDS011;69865;47.648;19.030;2023-07-13T00:13:00;2.03;;;2.03;;
80104;SDS011;69865;47.648;19.030;2023-07-13T00:13:32;2.23;;;2.23;;
80104;SDS011;69865;47.648;19.030;2023-07-13T00:14:04;1.93;;;1.93;;
80104;SDS011;69865;47.648;19.030;2023-07-13T00:14:36;1.83;;;1.83;;
80104;SDS011;69865;47.648;19.030;2023-07-13T00:15:10;1.97;;;1.97;;
80104;SDS011;69865;47.648;19.030;2023-07-13T00:15:45;2.20;;;2.20;;
80104;SDS011;69865;47.648;19.030;2023-07-13T00:16:17;2.03;;;2.03;;
80104;SDS011;69865;47.648;19.030;2023-07-13T00:16:50;1.87;;;1.87;;
80104;SDS011;69865;47.648;19.030;2023-07-13T00:17:22;1.97;;;1.97;;
80104;SDS011;69865;47.648;19.030;2023-07-13T00:17:54;2.10;;;2.10;;
80104;SDS011;69865;47.648;19.030;2023-07-13T00:18:27;2.00;;;2.00;;
80104;SDS011;69865;47.648;19.030;2023-07-13T00:18:59;2.30;;;2.30;;
80104;SDS011;69865;47.648;19.030;2023-07-13T00:19:31;2.20;;;2.20;;
80104;SDS011;69865;47.648;19.030;2023-07-13T00:20:03;2.50;;;2.47;;
80104;SDS011;69865;47.648;19.030;2023-07-13T00:20:36;2.53;;;2.50;;
80104;SDS011;69865;47.648;19.030;2023-07-13T00:21:08;2.80;;;2.80;;
80104;SDS011;69865;47.648;19.030;2023-07-13T00:21:41;2.70;;;2.70;;
80104;SDS011;69865;47.648;19.030;2023-07-13T00:22:13;2.43;;;2.43;;
80104;SDS011;69865;47.648;19.030;2023-07-13T00:22:45;2.73;;;2.73;;
80104;SDS011;69865;47.648;19.030;2023-07-13T00:23:17;2.90;;;2.90;;
80104;SDS011;69865;47.648;19.030;2023-07-13T00:23:49;2.60;;;2.60;;
80104;SDS011;69865;47.648;19.030;2023-07-13T00:24:21;3.03;;;3.03;;
80104;SDS011;69865;47.648;19.030;2023-07-13T00:24:53;2.97;;;2.97;;
80104;SDS011;69865;47.648;19.030;2023-07-13T00:25:26;3.00;;;3.00;;
80104;SDS011;69865;47.648;19.030;2023-07-13T00:25:58;3.23;;;3.23;;
80104;SDS011;69865;47.648;19.030;2023-07-13T00:26:30;3.23;;;3.23;;
80104;SDS011;69865;47.648;19.030;2023-07-13T00:27:02;3.67;;;3.67;;
80104;SDS011;69865;47.648;19.030;2023-07-13T00:27:36;3.57;;;3.57;;
80104;SDS011;69865;47.648;19.030;2023-07-13T00:28:08;3.40;;;3.40;;
80104;SDS011;69865;47.648;19.030;2023-07-13T00:28:40;3.30;;;3.30;;
80104;SDS011;69865;47.648;19.030;2023-07-13T00:29:12;3.17;;;3.17;;
80104;SDS011;69865;47.648;19.030;2023-07-13T00:29:44;3.30;;;3.30;;
80104;SDS011;69865;47.648;19.030;2023-07-13T00:30:16;3.07;;;3.07;;
80104;SDS011;69865;47.648;19.030;2023-07-13T00:30:49;2.90;;;2.90;;
80104;SDS011;69865;47.648;19.030;2023-07-13T00:31:21;3.27;;;3.27;;
80104;SDS011;69865;47.648;19.030;2023-07-13T00:31:53;3.37;;;3.37;;
80104;SDS011;69865;47.648;19.030;2023-07-13T00:32:25;3.13;;;3.13;;
80104;SDS011;69865;47.648;19.030;2023-07-13T00:32:57;2.97;;;2.97;;
80104;SDS011;69865;47.648;19.030;2023-07-13T00:33:47;3.37;;;3.37;;
80104;SDS011;69865;47.648;19.030;2023-07-13T00:34:19;3.37;;;3.37;;
80104;SDS011;69865;47.648;19.030;2023-07-13T00:34:52;3.13;;;3.13;;
80104;SDS011;69865;47.648;19.030;2023-07-13T00:35:25;3.30;;;3.30;;
80104;SDS011;69865;47.648;19.030;2023-07-13T00:35:57;3.07;;;3.07;;
80104;SDS011;69865;47.648;19.030;2023-07-13T00:36:29;2.97;;;2.97;;
80104;SDS011;69865;47.648;19.030;2023-07-13T00:37:02;2.93;;;2.93;;
80104;SDS011;69865;47.648;19.030;2023-07-13T00:37:35;3.27;;;3.27;;
80104;SDS011;69865;47.648;19.030;2023-07-13T00:38:07;3.27;;;3.27;;
80104;SDS011;69865;47.648;19.030;2023-07-13T00:38:39;2.90;;;2.90;;
80104;SDS011;69865;47.648;19.030;2023-07-13T00:39:12;3.27;;;3.27;;
80104;SDS011;69865;47.648;19.030;2023-07-13T00:39:44;2.97;;;2.97;;
80104;SDS011;69865;47.648;19.030;2023-07-13T00:40:16;2.87;;;2.87;;
80104;SDS011;69865;47.648;19.030;2023-07-13T00:40:49;2.77;;;2.77;;
80104;SDS011;69865;47.648;19.030;2023-07-13T00:41:21;2.93;;;2.93;;
80104;SDS011;69865;47.648;19.030;2023-07-13T00:41:53;2.67;;;2.67;;
80104;SDS011;69865;47.648;19.030;2023-07-13T00:42:25;2.13;;;2.13;;
80104;SDS011;69865;47.648;19.030;2023-07-13T00:42:59;2.23;;;2.23;;
80104;SDS011;69865;47.648;19.030;2023-07-13T00:43:31;2.20;;;2.20;;
80104;SDS011;69865;47.648;19.030;2023-07-13T00:44:03;2.33;;;2.33;;
80104;SDS011;69865;47.648;19.030;2023-07-13T00:44:36;2.03;;;2.03;;
80104;SDS011;69865;47.648;19.030;2023-07-13T00:46:18;2.03;;;2.03;;
80104;SDS011;69865;47.648;19.030;2023-07-13T00:46:55;1.83;;;1.83;;
80104;SDS011;69865;47.648;19.030;2023-07-13T00:47:28;1.80;;;1.80;;
80104;SDS011;69865;47.648;19.030;2023-07-13T00:48:00;1.97;;;1.97;;
80104;SDS011;69865;47.648;19.030;2023-07-13T00:48:33;1.93;;;1.93;;
80104;SDS011;69865;47.648;19.030;2023-07-13T00:49:07;2.00;;;2.00;;
80104;SDS011;69865;47.648;19.030;2023-07-13T00:49:42;1.67;;;1.67;;
80104;SDS011;69865;47.648;19.030;2023-07-13T00:50:15;1.87;;;1.87;;
80104;SDS011;69865;47.648;19.030;2023-07-13T00:50:52;2.20;;;2.20;;
80104;SDS011;69865;47.648;19.030;2023-07-13T00:51:30;2.07;;;2.07;;
80104;SDS011;69865;47.648;19.030;2023-07-13T00:52:07;2.37;;;2.37;;
80104;SDS011;69865;47.648;19.030;2023-07-13T00:52:41;2.00;;;2.00;;
80104;SDS011;69865;47.648;19.030;2023-07-13T00:53:16;2.13;;;2.13;;
80104;SDS011;69865;47.648;19.030;2023-07-13T00:53:50;2.13;;;2.13;;
80104;SDS011;69865;47.648;19.030;2023-07-13T00:54:24;2.17;;;2.17;;
80104;SDS011;69865;47.648;19.030;2023-07-13T00:55:00;2.00;;;2.00;;
80104;SDS011;69865;47.648;19.030;2023-07-13T00:55:33;2.30;;;2.30;;
80104;SDS011;69865;47.648;19.030;2023-07-13T00:56:06;2.37;;;2.37;;
80104;SDS011;69865;47.648;19.030;2023-07-13T00:56:39;2.17;;;2.17;;
80104;SDS011;69865;47.648;19.030;2023-07-13T00:57:15;2.17;;;2.17;;
80104;SDS011;69865;47.648;19.030;2023-07-13T00:57:50;2.47;;;2.47;;
80104;SDS011;69865;47.648;19.030;2023-07-13T00:58:24;2.37;;;2.37;;
80104;SDS011;69865;47.648;19.030;2023-07-13T00:58:57;2.37;;;2.37;;
80104;SDS011;69865;47.648;19.030;2023-07-13T00:59:31;2.43;;;2.43;;
80104;SDS011;69865;47.648;19.030;2023-07-13T01:00:06;2.27;;;2.27;;
80104;SDS011;69865;47.648;19.030;2023-07-13T01:00:39;2.50;;;2.50;;
80104;SDS011;69865;47.648;19.030;2023-07-13T01:01:12;2.33;;;2.33;;
80104;SDS011;69865;47.648;19.030;2023-07-13T01:01:44;2.73;;;2.73;;
80104;SDS011;69865;47.648;19.030;2023-07-13T01:02:16;2.83;;;2.83;;
80104;SDS011;69865;47.648;19.030;2023-07-13T01:02:48;2.77;;;2.77;;
80104;SDS011;69865;47.648;19.030;2023-07-13T01:03:21;2.80;;;2.80;;
80104;SDS011;69865;47.648;19.030;2023-07-13T01:03:53;2.83;;;2.83;;
80104;SDS011;69865;47.648;19.030;2023-07-13T01:04:25;2.90;;;2.90;;
80104;SDS011;69865;47.648;19.030;2023-07-13T01:04:57;3.23;;;3.23;;
80104;SDS011;69865;47.648;19.030;2023-07-13T01:05:30;2.90;;;2.90;;
80104;SDS011;69865;47.648;19.030;2023-07-13T01:06:04;2.77;;;2.77;;
80104;SDS011;69865;47.648;19.030;2023-07-13T01:06:37;2.77;;;2.77;;
80104;SDS011;69865;47.648;19.030;2023-07-13T01:07:11;2.77;;;2.77;;
80104;SDS011;69865;47.648;19.030;2023-07-13T01:07:44;2.73;;;2.73;;
80104;SDS011;69865;47.648;19.030;2023-07-13T01:08:17;2.83;;;2.83;;
80104;SDS011;69865;47.648;19.030;2023-07-13T01:08:49;2.53;;;2.53;;
80104;SDS011;69865;47.648;19.030;2023-07-13T01:09:22;2.60;;;2.60;;
80104;SDS011;69865;47.648;19.030;2023-07-13T01:09:54;2.97;;;2.97;;
80104;SDS011;69865;47.648;19.030;2023-07-13T01:10:26;2.80;;;2.80;;
80104;SDS011;69865;47.648;19.030;2023-07-13T01:10:58;2.90;;;2.90;;
80104;SDS011;69865;47.648;19.030;2023-07-13T01:11:30;2.63;;;2.63;;
80104;SDS011;69865;47.648;19.030;2023-07-13T01:12:03;2.80;;;2.80;;
80104;SDS011;69865;47.648;19.030;2023-07-13T01:12:35;2.90;;;2.90;;
80104;SDS011;69865;47.648;19.030;2023-07-13T01:13:08;2.67;;;2.67;;
80104;SDS011;69865;47.648;19.030;2023-07-13T01:13:43;2.83;;;2.83;;
80104;SDS011;69865;47.648;19.030;2023-07-13T01:14:15;2.80;;;2.80;;
80104;SDS011;69865;47.648;19.030;2023-07-13T01:14:47;2.63;;;2.63;;
80104;SDS011;69865;47.648;19.030;2023-07-13T01:15:35;2.63;;;2.63;;
80104;SDS011;69865;47.648;19.030;2023-07-13T01:16:12;2.47;;;2.47;;
80104;SDS011;69865;47.648;19.030;2023-07-13T01:16:51;2.33;;;2.33;;
80104;SDS011;69865;47.648;19.030;2023-07-13T01:17:24;2.43;;;2.43;;
80104;SDS011;69865;47.648;19.030;2023-07-13T01:17:56;2.63;;;2.63;;
80104;SDS011;69865;47.648;19.030;2023-07-13T01:18:28;2.50;;;2.50;;
80104;SDS011;69865;47.648;19.030;2023-07-13T01:19:01;2.80;;;2.80;;
80104;SDS011;69865;47.648;19.030;2023-07-13T01:19:40;2.70;;;2.70;;
80104;SDS011;69865;47.648;19.030;2023-07-13T01:20:14;2.73;;;2.73;;
80104;SDS011;69865;47.648;19.030;2023-07-13T01:20:50;2.30;;;2.30;;
80104;SDS011;69865;47.648;19.030;2023-07-13T01:21:23;2.30;;;2.30;;
80104;SDS011;69865;47.648;19.030;2023-07-13T01:21:56;2.43;;;2.43;;
80104;SDS011;69865;47.648;19.030;2023-07-13T01:22:28;2.47;;;2.47;;
80104;SDS011;69865;47.648;19.030;2023-07-13T01:23:00;2.50;;;2.50;;
80104;SDS011;69865;47.648;19.030;2023-07-13T01:23:32;2.40;;;2.40;;
80104;SDS011;69865;47.648;19.030;2023-07-13T01:24:05;2.33;;;2.33;;
80104;SDS011;69865;47.648;19.030;2023-07-13T01:24:37;2.33;;;2.33;;
80104;SDS011;69865;47.648;19.030;2023-07-13T01:25:11;2.63;;;2.63;;
80104;SDS011;69865;47.648;19.030;2023-07-13T01:25:43;2.53;;;2.53;;
80104;SDS011;69865;47.648;19.030;2023-07-13T01:26:15;2.80;;;2.80;;
80104;SDS011;69865;47.648;19.030;2023-07-13T01:26:47;2.47;;;2.47;;
80104;SDS011;69865;47.648;19.030;2023-07-13T01:27:20;2.57;;;2.57;;
80104;SDS011;69865;47.648;19.030;2023-07-13T01:27:54;2.57;;;2.57;;
80104;SDS011;69865;47.648;19.030;2023-07-13T01:28:26;2.57;;;2.57;;
80104;SDS011;69865;47.648;19.030;2023-07-13T01:28:59;2.60;;;2.60;;
80104;SDS011;69865;47.648;19.030;2023-07-13T01:29:32;2.53;;;2.53;;
80104;SDS011;69865;47.648;19.030;2023-07-13T01:30:06;2.77;;;2.77;;
80104;SDS011;69865;47.648;19.030;2023-07-13T01:30:38;3.03;;;3.03;;
80104;SDS011;69865;47.648;19.030;2023-07-13T01:31:12;2.47;;;2.47;;
80104;SDS011;69865;47.648;19.030;2023-07-13T01:31:44;2.30;;;2.30;;
80104;SDS011;69865;47.648;19.030;2023-07-13T01:32:18;2.60;;;2.60;;
80104;SDS011;69865;47.648;19.030;2023-07-13T01:32:51;2.60;;;2.60;;
80104;SDS011;69865;47.648;19.030;2023-07-13T01:33:24;2.60;;;2.60;;
80104;SDS011;69865;47.648;19.030;2023-07-13T01:33:57;2.70;;;2.70;;
80104;SDS011;69865;47.648;19.030;2023-07-13T01:34:29;2.83;;;2.83;;
80104;SDS011;69865;47.648;19.030;2023-07-13T01:35:01;2.63;;;2.63;;
80104;SDS011;69865;47.648;19.030;2023-07-13T01:35:33;2.33;;;2.33;;
80104;SDS011;69865;47.648;19.030;2023-07-13T01:36:07;2.23;;;2.23;;
80104;SDS011;69865;47.648;19.030;2023-07-13T01:36:41;2.27;;;2.27;;
80104;SDS011;69865;47.648;19.030;2023-07-13T01:37:13;2.53;;;2.53;;
80104;SDS011;69865;47.648;19.030;2023-07-13T01:37:45;2.73;;;2.73;;
80104;SDS011;69865;47.648;19.030;2023-07-13T01:38:17;2.70;;;2.70;;
80104;SDS011;69865;47.648;19.030;2023-07-13T01:38:51;3.17;;;3.17;;
80104;SDS011;69865;47.648;19.030;2023-07-13T01:39:23;2.83;;;2.83;;
80104;SDS011;69865;47.648;19.030;2023-07-13T01:39:55;2.70;;;2.70;;
80104;SDS011;69865;47.648;19.030;2023-07-13T01:40:28;2.83;;;2.83;;
80104;SDS011;69865;47.648;19.030;2023-07-13T01:41:01;2.93;;;2.93;;
80104;SDS011;69865;47.648;19.030;2023-07-13T01:41:33;2.60;;;2.60;;
80104;SDS011;69865;47.648;19.030;2023-07-13T01:42:05;2.60;;;2.60;;
80104;SDS011;69865;47.648;19.030;2023-07-13T01:42:38;2.70;;;2.70;;
80104;SDS011;69865;47.648;19.030;2023-07-13T01:43:10;2.50;;;2.50;;
80104;SDS011;69865;47.648;19.030;2023-07-13T01:43:42;2.37;;;2.37;;
80104;SDS011;69865;47.648;19.030;2023-07-13T01:44:14;2.60;;;2.60;;
80104;SDS011;69865;47.648;19.030;2023-07-13T01:44:46;2.60;;;2.60;;
80104;SDS011;69865;47.648;19.030;2023-07-13T01:45:18;2.83;;;2.83;;
80104;SDS011;69865;47.648;19.030;2023-07-13T01:45:50;2.83;;;2.83;;
80104;SDS011;69865;47.648;19.030;2023-07-13T01:46:23;2.70;;;2.70;;
80104;SDS011;69865;47.648;19.030;2023-07-13T01:46:56;2.90;;;2.90;;
80104;SDS011;69865;47.648;19.030;2023-07-13T01:47:28;2.90;;;2.90;;
80104;SDS011;69865;47.648;19.030;2023-07-13T01:48:01;2.57;;;2.57;;
80104;SDS011;69865;47.648;19.030;2023-07-13T01:48:33;2.77;;;2.77;;
80104;SDS011;69865;47.648;19.030;2023-07-13T01:49:05;3.07;;;3.07;;
80104;SDS011;69865;47.648;19.030;2023-07-13T01:49:37;2.73;;;2.73;;
80104;SDS011;69865;47.648;19.030;2023-07-13T01:50:09;2.77;;;2.77;;
80104;SDS011;69865;47.648;19.030;2023-07-13T01:50:41;2.43;;;2.43;;
80104;SDS011;69865;47.648;19.030;2023-07-13T01:51:15;2.43;;;2.43;;
80104;SDS011;69865;47.648;19.030;2023-07-13T01:51:48;2.30;;;2.30;;
80104;SDS011;69865;47.648;19.030;2023-07-13T01:52:20;2.23;;;2.23;;
80104;SDS011;69865;47.648;19.030;2023-07-13T01:52:52;2.57;;;2.57;;
80104;SDS011;69865;47.648;19.030;2023-07-13T01:53:25;2.50;;;2.50;;
80104;SDS011;69865;47.648;19.030;2023-07-13T01:53:57;2.37;;;2.37;;
80104;SDS011;69865;47.648;19.030;2023-07-13T01:54:29;2.80;;;2.80;;
80104;SDS011;69865;47.648;19.030;2023-07-13T01:55:01;2.53;;;2.53;;
80104;SDS011;69865;47.648;19.030;2023-07-13T01:55:33;2.37;;;2.37;;
80104;SDS011;69865;47.648;19.030;2023-07-13T01:56:06;2.70;;;2.70;;
80104;SDS011;69865;47.648;19.030;2023-07-13T01:56:38;2.30;;;2.30;;
80104;SDS011;69865;47.648;19.030;2023-07-13T01:57:10;2.00;;;2.00;;
80104;SDS011;69865;47.648;19.030;2023-07-13T01:57:42;2.37;;;2.37;;
80104;SDS011;69865;47.648;19.030;2023-07-13T01:58:14;2.77;;;2.77;;
80104;SDS011;69865;47.648;19.030;2023-07-13T01:58:47;2.63;;;2.63;;
80104;SDS011;69865;47.648;19.030;2023-07-13T01:59:19;2.80;;;2.80;;
80104;SDS011;69865;47.648;19.030;2023-07-13T01:59:51;2.27;;;2.27;;
80104;SDS011;69865;47.648;19.030;2023-07-13T02:00:23;2.43;;;2.43;;
80104;SDS011;69865;47.648;19.030;2023-07-13T02:00:56;2.40;;;2.40;;
80104;SDS011;69865;47.648;19.030;2023-07-13T02:01:28;2.20;;;2.20;;
80104;SDS011;69865;47.648;19.030;2023-07-13T02:02:00;2.23;;;2.23;;
80104;SDS011;69865;47.648;19.030;2023-07-13T02:02:32;2.47;;;2.47;;
80104;SDS011;69865;47.648;19.030;2023-07-13T02:03:04;2.47;;;2.47;;
80104;SDS011;69865;47.648;19.030;2023-07-13T02:03:37;2.53;;;2.53;;
80104;SDS011;69865;47.648;19.030;2023-07-13T02:04:09;2.40;;;2.40;;
80104;SDS011;69865;47.648;19.030;2023-07-13T02:04:41;2.53;;;2.53;;
80104;SDS011;69865;47.648;19.030;2023-07-13T02:05:13;2.63;;;2.63;;
80104;SDS011;69865;47.648;19.030;2023-07-13T02:05:46;2.80;;;2.80;;
80104;SDS011;69865;47.648;19.030;2023-07-13T02:06:19;2.47;;;2.47;;
80104;SDS011;69865;47.648;19.030;2023-07-13T02:06:51;2.50;;;2.50;;
80104;SDS011;69865;47.648;19.030;2023-07-13T02:07:23;2.33;;;2.33;;
80104;SDS011;69865;47.648;19.030;2023-07-13T02:07:55;2.13;;;2.13;;
80104;SDS011;69865;47.648;19.030;2023-07-13T02:08:30;2.80;;;2.80;;
80104;SDS011;69865;47.648;19.030;2023-07-13T02:09:02;2.77;;;2.77;;
80104;SDS011;69865;47.648;19.030;2023-07-13T02:09:34;2.93;;;2.93;;
80104;SDS011;69865;47.648;19.030;2023-07-13T02:10:07;2.47;;;2.47;;
80104;SDS011;69865;47.648;19.030;2023-07-13T02:10:40;2.73;;;2.73;;
80104;SDS011;69865;47.648;19.030;2023-07-13T02:11:12;2.50;;;2.50;;
80104;SDS011;69865;47.648;19.030;2023-07-13T02:11:45;2.63;;;2.63;;
80104;SDS011;69865;47.648;19.030;2023-07-13T02:12:17;2.43;;;2.43;;
80104;SDS011;69865;47.648;19.030;2023-07-13T02:12:49;2.57;;;2.57;;
80104;SDS011;69865;47.648;19.030;2023-07-13T02:13:21;2.60;;;2.60;;
80104;SDS011;69865;47.648;19.030;2023-07-13T02:13:53;2.83;;;2.83;;
80104;SDS011;69865;47.648;19.030;2023-07-13T02:14:25;3.13;;;3.13;;
80104;SDS011;69865;47.648;19.030;2023-07-13T02:14:57;2.90;;;2.90;;
80104;SDS011;69865;47.648;19.030;2023-07-13T02:15:29;2.80;;;2.80;;
80104;SDS011;69865;47.648;19.030;2023-07-13T02:16:02;2.90;;;2.90;;
80104;SDS011;69865;47.648;19.030;2023-07-13T02:16:34;3.20;;;3.20;;
80104;SDS011;69865;47.648;19.030;2023-07-13T02:17:07;2.83;;;2.83;;
80104;SDS011;69865;47.648;19.030;2023-07-13T02:17:39;2.60;;;2.60;;
80104;SDS011;69865;47.648;19.030;2023-07-13T02:18:11;2.53;;;2.53;;
80104;SDS011;69865;47.648;19.030;2023-07-13T02:18:43;2.40;;;2.40;;
80104;SDS011;69865;47.648;19.030;2023-07-13T02:19:15;2.50;;;2.50;;
80104;SDS011;69865;47.648;19.030;2023-07-13T02:19:47;2.30;;;2.30;;
80104;SDS011;69865;47.648;19.030;2023-07-13T02:20:19;2.23;;;2.23;;
80104;SDS011;69865;47.648;19.030;2023-07-13T02:20:51;2.33;;;2.33;;
80104;SDS011;69865;47.648;19.030;2023-07-13T02:21:24;2.47;;;2.47;;
80104;SDS011;69865;47.648;19.030;2023-07-13T02:21:57;2.67;;;2.67;;
80104;SDS011;69865;47.648;19.030;2023-07-13T02:22:29;2.20;;;2.20;;
80104;SDS011;69865;47.648;19.030;2023-07-13T02:23:01;2.17;;;2.17;;
80104;SDS011;69865;47.648;19.030;2023-07-13T02:23:33;2.07;;;2.07;;
80104;SDS011;69865;47.648;19.030;2023-07-13T02:24:05;2.27;;;2.27;;
80104;SDS011;69865;47.648;19.030;2023-07-13T02:24:37;2.17;;;2.17;;
80104;SDS011;69865;47.648;19.030;2023-07-13T02:25:09;2.23;;;2.23;;
80104;SDS011;69865;47.648;19.030;2023-07-13T02:25:41;2.20;;;2.20;;
80104;SDS011;69865;47.648;19.030;2023-07-13T02:26:13;2.50;;;2.50;;
80104;SDS011;69865;47.648;19.030;2023-07-13T02:26:45;2.73;;;2.73;;
80104;SDS011;69865;47.648;19.030;2023-07-13T02:27:17;2.53;;;2.53;;
80104;SDS011;69865;47.648;19.030;2023-07-13T02:27:49;2.43;;;2.43;;
80104;SDS011;69865;47.648;19.030;2023-07-13T02:28:22;2.33;;;2.33;;
80104;SDS011;69865;47.648;19.030;2023-07-13T02:28:54;2.47;;;2.47;;
80104;SDS011;69865;47.648;19.030;2023-07-13T02:29:26;2.37;;;2.37;;
80104;SDS011;69865;47.648;19.030;2023-07-13T02:29:58;2.30;;;2.30;;
80104;SDS011;69865;47.648;19.030;2023-07-13T02:30:30;2.33;;;2.33;;
80104;SDS011;69865;47.648;19.030;2023-07-13T02:31:06;2.47;;;2.47;;
80104;SDS011;69865;47.648;19.030;2023-07-13T02:31:40;2.67;;;2.67;;
80104;SDS011;69865;47.648;19.030;2023-07-13T02:32:12;2.60;;;2.60;;
80104;SDS011;69865;47.648;19.030;2023-07-13T02:32:44;2.23;;;2.23;;
80104;SDS011;69865;47.648;19.030;2023-07-13T02:33:16;2.20;;;2.20;;
80104;SDS011;69865;47.648;19.030;2023-07-13T02:33:49;2.13;;;2.13;;
80104;SDS011;69865;47.648;19.030;2023-07-13T02:34:21;2.23;;;2.23;;
80104;SDS011;69865;47.648;19.030;2023-07-13T02:34:53;2.30;;;2.30;;
80104;SDS011;69865;47.648;19.030;2023-07-13T02:35:25;2.40;;;2.40;;
80104;SDS011;69865;47.648;19.030;2023-07-13T02:35:57;2.37;;;2.37;;
80104;SDS011;69865;47.648;19.030;2023-07-13T02:36:31;2.27;;;2.27;;
80104;SDS011;69865;47.648;19.030;2023-07-13T02:37:03;2.60;;;2.60;;
80104;SDS011;69865;47.648;19.030;2023-07-13T02:37:35;2.53;;;2.53;;
80104;SDS011;69865;47.648;19.030;2023-07-13T02:38:07;2.90;;;2.90;;
80104;SDS011;69865;47.648;19.030;2023-07-13T02:38:40;2.53;;;2.53;;
80104;SDS011;69865;47.648;19.030;2023-07-13T02:39:14;2.30;;;2.30;;
80104;SDS011;69865;47.648;19.030;2023-07-13T02:39:46;2.57;;;2.57;;
80104;SDS011;69865;47.648;19.030;2023-07-13T02:40:19;2.27;;;2.27;;
80104;SDS011;69865;47.648;19.030;2023-07-13T02:40:51;2.37;;;2.37;;
80104;SDS011;69865;47.648;19.030;2023-07-13T02:41:23;2.47;;;2.47;;
80104;SDS011;69865;47.648;19.030;2023-07-13T02:41:55;2.73;;;2.73;;
80104;SDS011;69865;47.648;19.030;2023-07-13T02:42:27;2.60;;;2.60;;
80104;SDS011;69865;47.648;19.030;2023-07-13T02:42:59;2.77;;;2.77;;
80104;SDS011;69865;47.648;19.030;2023-07-13T02:43:31;2.13;;;2.13;;
80104;SDS011;69865;47.648;19.030;2023-07-13T02:44:04;2.20;;;2.20;;
80104;SDS011;69865;47.648;19.030;2023-07-13T02:44:36;2.30;;;2.30;;
80104;SDS011;69865;47.648;19.030;2023-07-13T02:45:08;2.27;;;2.27;;
80104;SDS011;69865;47.648;19.030;2023-07-13T02:45:43;2.20;;;2.20;;
80104;SDS011;69865;47.648;19.030;2023-07-13T02:46:15;2.27;;;2.27;;
80104;SDS011;69865;47.648;19.030;2023-07-13T02:46:47;2.67;;;2.67;;
80104;SDS011;69865;47.648;19.030;2023-07-13T02:47:19;2.57;;;2.57;;
80104;SDS011;69865;47.648;19.030;2023-07-13T02:47:51;2.53;;;2.53;;
80104;SDS011;69865;47.648;19.030;2023-07-13T02:48:24;2.70;;;2.70;;
80104;SDS011;69865;47.648;19.030;2023-07-13T02:48:56;2.80;;;2.80;;
80104;SDS011;69865;47.648;19.030;2023-07-13T02:49:28;2.70;;;2.70;;
80104;SDS011;69865;47.648;19.030;2023-07-13T02:50:00;2.63;;;2.63;;
80104;SDS011;69865;47.648;19.030;2023-07-13T02:50:32;2.73;;;2.73;;
80104;SDS011;69865;47.648;19.030;2023-07-13T02:51:04;2.53;;;2.53;;
80104;SDS011;69865;47.648;19.030;2023-07-13T02:51:38;2.50;;;2.50;;
80104;SDS011;69865;47.648;19.030;2023-07-13T02:52:10;2.50;;;2.50;;
80104;SDS011;69865;47.648;19.030;2023-07-13T02:52:42;2.67;;;2.67;;
80104;SDS011;69865;47.648;19.030;2023-07-13T02:53:14;2.63;;;2.63;;
80104;SDS011;69865;47.648;19.030;2023-07-13T02:53:46;2.37;;;2.37;;
80104;SDS011;69865;47.648;19.030;2023-07-13T02:54:18;2.60;;;2.60;;
80104;SDS011;69865;47.648;19.030;2023-07-13T02:54:50;2.77;;;2.77;;
80104;SDS011;69865;47.648;19.030;2023-07-13T02:55:22;2.93;;;2.93;;
80104;SDS011;69865;47.648;19.030;2023-07-13T02:55:54;2.70;;;2.70;;
80104;SDS011;69865;47.648;19.030;2023-07-13T02:56:28;2.73;;;2.73;;
80104;SDS011;69865;47.648;19.030;2023-07-13T02:57:01;2.87;;;2.87;;
80104;SDS011;69865;47.648;19.030;2023-07-13T02:57:33;2.53;;;2.53;;
80104;SDS011;69865;47.648;19.030;2023-07-13T02:58:05;2.80;;;2.80;;
80104;SDS011;69865;47.648;19.030;2023-07-13T02:58:38;2.83;;;2.83;;
80104;SDS011;69865;47.648;19.030;2023-07-13T02:59:10;2.57;;;2.57;;
80104;SDS011;69865;47.648;19.030;2023-07-13T02:59:42;2.40;;;2.40;;
80104;SDS011;69865;47.648;19.030;2023-07-13T03:00:14;2.43;;;2.43;;
80104;SDS011;69865;47.648;19.030;2023-07-13T03:00:47;2.50;;;2.50;;
80104;SDS011;69865;47.648;19.030;2023-07-13T03:01:19;2.50;;;2.50;;
80104;SDS011;69865;47.648;19.030;2023-07-13T03:01:52;2.23;;;2.23;;
80104;SDS011;69865;47.648;19.030;2023-07-13T03:02:24;2.20;;;2.20;;
80104;SDS011;69865;47.648;19.030;2023-07-13T03:02:57;2.77;;;2.77;;
80104;SDS011;69865;47.648;19.030;2023-07-13T03:03:29;2.90;;;2.90;;
80104;SDS011;69865;47.648;19.030;2023-07-13T03:04:01;2.70;;;2.70;;
80104;SDS011;69865;47.648;19.030;2023-07-13T03:04:34;2.43;;;2.43;;
80104;SDS011;69865;47.648;19.030;2023-07-13T03:05:07;2.53;;;2.53;;
80104;SDS011;69865;47.648;19.030;2023-07-13T03:05:41;2.13;;;2.13;;
80104;SDS011;69865;47.648;19.030;2023-07-13T03:06:14;2.47;;;2.47;;
80104;SDS011;69865;47.648;19.030;2023-07-13T03:06:48;2.47;;;2.47;;
80104;SDS011;69865;47.648;19.030;2023-07-13T03:07:20;2.87;;;2.87;;
80104;SDS011;69865;47.648;19.030;2023-07-13T03:07:52;2.67;;;2.67;;
80104;SDS011;69865;47.648;19.030;2023-07-13T03:08:25;2.50;;;2.50;;
80104;SDS011;69865;47.648;19.030;2023-07-13T03:08:57;2.87;;;2.87;;
80104;SDS011;69865;47.648;19.030;2023-07-13T03:10:32;2.83;;;2.67;;
80104;SDS011;69865;47.648;19.030;2023-07-13T03:11:05;3.13;;;3.03;;
80104;SDS011;69865;47.648;19.030;2023-07-13T03:11:39;2.93;;;2.83;;
80104;SDS011;69865;47.648;19.030;2023-07-13T03:12:11;2.90;;;2.87;;
80104;SDS011;69865;47.648;19.030;2023-07-13T03:12:43;2.53;;;2.53;;
80104;SDS011;69865;47.648;19.030;2023-07-13T03:13:15;2.83;;;2.83;;
80104;SDS011;69865;47.648;19.030;2023-07-13T03:13:48;2.87;;;2.87;;
80104;SDS011;69865;47.648;19.030;2023-07-13T03:14:22;2.63;;;2.63;;
80104;SDS011;69865;47.648;19.030;2023-07-13T03:14:55;2.70;;;2.70;;
80104;SDS011;69865;47.648;19.030;2023-07-13T03:15:29;3.00;;;3.00;;
80104;SDS011;69865;47.648;19.030;2023-07-13T03:16:02;2.83;;;2.83;;
80104;SDS011;69865;47.648;19.030;2023-07-13T03:16:37;2.97;;;2.97;;